createdAt,value
2023-12-27T00:00:20.982Z,98198.03
2023-12-27T00:03:23.158Z,98196.69
2023-12-27T00:06:25.281Z,98186.66
2023-12-27T00:09:27.464Z,98180.75
2023-12-27T00:12:29.506Z,98201.00
2023-12-27T00:15:31.642Z,98203.56
2023-12-27T00:18:33.845Z,98195.28
2023-12-27T00:21:36.181Z,98215.03
2023-12-27T00:24:38.330Z,98223.22
2023-12-27T00:27:40.529Z,98237.38
2023-12-27T00:30:42.778Z,98227.19
2023-12-27T00:33:45.148Z,98240.75
2023-12-27T00:36:47.292Z,98243.59
2023-12-27T00:39:49.298Z,98246.91
2023-12-27T00:42:52.471Z,98238.75
2023-12-27T00:45:54.502Z,98245.28
2023-12-27T00:48:56.686Z,98256.53
2023-12-27T00:51:58.794Z,98248.00
2023-12-27T00:55:01.369Z,98259.41
2023-12-27T00:58:03.456Z,98258.22
2023-12-27T01:01:05.564Z,98271.50
2023-12-27T01:04:07.671Z,98276.09
2023-12-27T01:07:09.748Z,98269.69
2023-12-27T01:10:11.742Z,98260.44
2023-12-27T01:13:14.874Z,98280.19
2023-12-27T01:16:16.940Z,98284.22
2023-12-27T01:19:19.038Z,98294.28
2023-12-27T01:22:21.412Z,98307.59
2023-12-27T01:25:23.401Z,98305.19
2023-12-27T01:28:25.396Z,98299.03
2023-12-27T01:31:27.511Z,98315.59
2023-12-27T01:34:29.827Z,98309.69
2023-12-27T01:37:33.794Z,98307.63
2023-12-27T01:40:36.256Z,98309.06
2023-12-27T01:43:39.119Z,98311.72
2023-12-27T01:46:41.346Z,98320.72
2023-12-27T01:49:43.497Z,98318.88
2023-12-27T01:52:45.749Z,98302.25
2023-12-27T01:55:48.851Z,98288.47
2023-12-27T01:58:51.232Z,98315.00
2023-12-27T02:01:53.822Z,98313.75
2023-12-27T02:04:55.856Z,98317.44
2023-12-27T02:07:59.196Z,98314.72
2023-12-27T02:11:01.976Z,98324.00
2023-12-27T02:14:07.700Z,98330.94
2023-12-27T02:17:09.913Z,98320.09
2023-12-27T02:20:12.302Z,98314.44
2023-12-27T02:23:19.065Z,98310.78
2023-12-27T02:26:21.534Z,98327.06
2023-12-27T02:29:23.913Z,98312.97
2023-12-27T02:32:27.809Z,98325.00
2023-12-27T02:35:29.994Z,98308.13
2023-12-27T02:38:32.060Z,98316.91
2023-12-27T02:41:34.280Z,98307.56
2023-12-27T02:44:36.398Z,98310.91
2023-12-27T02:47:38.440Z,98317.84
2023-12-27T02:50:40.563Z,98305.84
2023-12-27T02:53:42.674Z,98317.31
2023-12-27T02:56:44.707Z,98321.22
2023-12-27T02:59:46.810Z,98318.34
2023-12-27T03:02:48.857Z,98308.31
2023-12-27T03:05:51.041Z,98319.97
2023-12-27T03:08:55.132Z,98328.94
2023-12-27T03:11:57.941Z,98312.59
2023-12-27T03:14:59.998Z,98303.50
2023-12-27T03:18:02.562Z,98317.81
2023-12-27T03:21:05.033Z,98297.16
2023-12-27T03:24:07.188Z,98337.50
2023-12-27T03:27:09.408Z,98338.31
2023-12-27T03:30:12.268Z,98343.66
2023-12-27T03:33:14.522Z,98331.66
2023-12-27T03:36:16.640Z,98340.81
2023-12-27T03:39:18.871Z,98344.06
2023-12-27T03:42:21.098Z,98324.75
2023-12-27T03:45:23.221Z,98326.84
2023-12-27T03:48:25.703Z,98327.13
2023-12-27T03:51:27.988Z,98344.47
2023-12-27T03:54:30.060Z,98339.59
2023-12-27T03:57:32.394Z,98324.06
2023-12-27T04:00:35.659Z,98344.44
2023-12-27T04:03:37.928Z,98343.19
2023-12-27T04:06:40.126Z,98339.78
2023-12-27T04:09:42.747Z,98350.81
2023-12-27T04:12:45.024Z,98357.78
2023-12-27T04:15:47.408Z,98361.84
2023-12-27T04:18:49.934Z,98378.78
2023-12-27T04:21:52.745Z,98384.09
2023-12-27T04:24:56.389Z,98371.22
2023-12-27T04:27:59.877Z,98381.38
2023-12-27T04:31:02.223Z,98370.38
2023-12-27T04:34:04.591Z,98369.31
2023-12-27T04:37:11.088Z,98375.44
2023-12-27T04:40:13.184Z,98370.97
2023-12-27T04:43:15.385Z,98368.91
2023-12-27T04:46:17.929Z,98350.59
2023-12-27T04:49:20.067Z,98361.06
2023-12-27T04:52:22.723Z,98371.97
2023-12-27T04:55:24.971Z,98365.22
2023-12-27T04:58:26.994Z,98366.22
2023-12-27T05:01:29.249Z,98355.28
2023-12-27T05:04:31.258Z,98362.44
2023-12-27T05:07:34.165Z,98365.47
2023-12-27T05:10:36.155Z,98358.81
2023-12-27T05:13:38.172Z,98367.06
2023-12-27T05:16:40.205Z,98371.59
2023-12-27T05:19:42.326Z,98352.50
2023-12-27T05:22:45.773Z,98373.72
2023-12-27T05:25:47.802Z,98379.84
2023-12-27T05:28:49.853Z,98361.66
2023-12-27T05:31:51.948Z,98380.63
2023-12-27T05:34:54.428Z,98379.84
2023-12-27T05:37:56.622Z,98400.44
2023-12-27T05:40:58.832Z,98393.88
2023-12-27T05:44:02.544Z,98386.50
2023-12-27T05:47:04.691Z,98398.16
2023-12-27T05:50:07.807Z,98395.72
2023-12-27T05:53:13.595Z,98394.06
2023-12-27T05:56:16.869Z,98397.75
2023-12-27T05:59:18.966Z,98401.41
2023-12-27T06:02:21.062Z,98412.06
2023-12-27T06:05:24.192Z,98406.31
2023-12-27T06:08:26.239Z,98406.13
2023-12-27T06:11:28.314Z,98409.19
2023-12-27T06:14:30.367Z,98408.19
2023-12-27T06:17:32.522Z,98409.81
2023-12-27T06:20:34.644Z,98406.56
2023-12-27T06:23:36.882Z,98411.91
2023-12-27T06:26:38.910Z,98404.53
2023-12-27T06:29:41.047Z,98416.00
2023-12-27T06:32:43.143Z,98416.19
2023-12-27T06:35:45.354Z,98416.00
2023-12-27T06:38:47.600Z,98420.06
2023-12-27T06:41:49.786Z,98426.38
2023-12-27T06:44:51.888Z,98426.56
2023-12-27T06:47:54.068Z,98429.22
2023-12-27T06:50:56.123Z,98441.50
2023-12-27T06:53:58.107Z,98444.13
2023-12-27T06:57:00.980Z,98452.28
2023-12-27T07:00:04.189Z,98445.94
2023-12-27T07:03:06.760Z,98460.41
2023-12-27T07:06:09.353Z,98464.50
2023-12-27T07:09:11.694Z,98462.69
2023-12-27T07:12:14.092Z,98469.00
2023-12-27T07:15:16.560Z,98475.31
2023-12-27T07:18:18.736Z,98480.41
2023-12-27T07:21:22.400Z,98488.78
2023-12-27T07:24:24.488Z,98485.72
2023-12-27T07:27:27.005Z,98488.78
2023-12-27T07:30:29.282Z,98497.94
2023-12-27T07:33:31.960Z,98491.66
2023-12-27T07:36:34.259Z,98506.97
2023-12-27T07:39:36.662Z,98500.22
2023-12-27T07:42:39.008Z,98504.13
2023-12-27T07:45:41.343Z,98509.41
2023-12-27T07:48:43.590Z,98519.00
2023-12-27T07:51:46.288Z,98525.13
2023-12-27T07:54:48.282Z,98538.19
2023-12-27T07:57:51.343Z,98535.69
2023-12-27T08:00:54.589Z,98543.88
2023-12-27T08:03:56.810Z,98555.28
2023-12-27T08:06:58.993Z,98549.78
2023-12-27T08:10:01.602Z,98562.00
2023-12-27T08:13:05.105Z,98555.13
2023-12-27T08:16:09.772Z,98557.16
2023-12-27T08:19:11.923Z,98539.00
2023-12-27T08:22:13.979Z,98561.25
2023-12-27T08:25:17.080Z,98569.84
2023-12-27T08:28:19.192Z,98577.59
2023-12-27T08:31:21.402Z,98569.44
2023-12-27T08:34:23.753Z,98585.34
2023-12-27T08:37:27.223Z,98588.03
2023-12-27T08:40:29.356Z,98598.88
2023-12-27T08:43:31.342Z,98590.25
2023-12-27T08:46:34.173Z,98594.53
2023-12-27T08:49:36.472Z,98596.38
2023-12-27T08:52:40.021Z,98588.56
2023-12-27T08:55:42.011Z,98597.53
2023-12-27T08:58:44.103Z,98592.38
2023-12-27T09:01:46.169Z,98599.50
2023-12-27T09:04:48.254Z,98591.53
2023-12-27T09:07:50.322Z,98584.19
2023-12-27T09:10:52.392Z,98574.81
2023-12-27T09:13:54.415Z,98589.72
2023-12-27T09:16:56.395Z,98591.72
2023-12-27T09:19:58.453Z,98591.88
2023-12-27T09:23:01.965Z,98589.00
2023-12-27T09:26:04.116Z,98585.84
2023-12-27T09:29:06.252Z,98575.91
2023-12-27T09:32:08.384Z,98591.25
2023-12-27T09:35:10.694Z,98575.34
2023-12-27T09:38:12.793Z,98591.94
2023-12-27T09:41:15.984Z,98591.72
2023-12-27T09:44:21.711Z,98580.84
2023-12-27T09:47:25.112Z,98584.09
2023-12-27T09:50:27.248Z,98560.78
2023-12-27T09:53:29.391Z,98570.44
2023-12-27T09:56:32.773Z,98549.81
2023-12-27T09:59:40.304Z,98579.59
2023-12-27T10:02:43.530Z,98553.41
2023-12-27T10:05:56.046Z,98563.25
2023-12-27T10:08:59.018Z,98565.84
2023-12-27T10:12:02.094Z,98572.47
2023-12-27T10:15:05.979Z,98566.91
2023-12-27T10:18:09.477Z,98564.88
2023-12-27T10:21:13.267Z,98545.56
2023-12-27T10:24:16.041Z,98560.13
2023-12-27T10:27:18.632Z,98558.94
2023-12-27T10:30:21.022Z,98552.75
2023-12-27T10:33:28.649Z,98549.25
2023-12-27T10:36:34.993Z,98537.75
2023-12-27T10:39:43.702Z,98533.44
2023-12-27T10:42:47.946Z,98522.41
2023-12-27T10:45:49.983Z,98517.47
2023-12-27T10:48:56.497Z,98520.94
2023-12-27T10:52:00.826Z,98508.38
2023-12-27T10:55:04.949Z,98503.25
2023-12-27T10:58:12.136Z,98509.25
2023-12-27T11:01:15.264Z,98502.50
2023-12-27T11:04:19.867Z,98503.00
2023-12-27T11:07:26.394Z,98504.56
2023-12-27T11:10:31.509Z,98488.03
2023-12-27T11:13:35.229Z,98493.41
2023-12-27T11:16:41.026Z,98495.22
2023-12-27T11:19:44.299Z,98479.78
2023-12-27T11:22:46.566Z,98471.00
2023-12-27T11:25:48.700Z,98474.03
2023-12-27T11:28:51.317Z,98472.25
2023-12-27T11:31:54.677Z,98445.41
2023-12-27T11:34:57.285Z,98462.66
2023-12-27T11:38:21.169Z,98439.31
2023-12-27T11:41:23.338Z,98446.38
2023-12-27T11:44:36.258Z,98450.88
2023-12-27T11:47:39.536Z,98441.53
2023-12-27T11:50:43.173Z,98448.06
2023-12-27T11:53:47.444Z,98438.31
2023-12-27T11:56:49.545Z,98434.47
2023-12-27T11:59:57.052Z,98435.41
2023-12-27T12:03:01.605Z,98424.03
2023-12-27T12:06:35.951Z,98420.56
2023-12-27T12:09:40.449Z,98419.53
2023-12-27T12:12:43.547Z,98416.28
2023-12-27T12:15:45.685Z,98414.47
2023-12-27T12:18:49.035Z,98413.09
2023-12-27T12:21:53.838Z,98411.88
2023-12-27T12:25:07.144Z,98401.78
2023-12-27T12:28:10.271Z,98383.00
2023-12-27T12:31:13.169Z,98397.72
2023-12-27T12:34:15.310Z,98393.84
2023-12-27T12:37:18.709Z,98384.78
2023-12-27T12:40:22.075Z,98387.34
2023-12-27T12:43:24.172Z,98381.50
2023-12-27T12:46:26.562Z,98376.66
2023-12-27T12:49:30.837Z,98371.66
2023-12-27T12:52:37.239Z,98386.88
2023-12-27T12:55:39.532Z,98377.94
2023-12-27T12:58:43.318Z,98367.63
2023-12-27T13:01:45.764Z,98365.28
2023-12-27T13:04:59.474Z,98367.34
2023-12-27T13:08:07.815Z,98349.13
2023-12-27T13:11:12.386Z,98348.78
2023-12-27T13:14:15.702Z,98350.13
2023-12-27T18:20:18.299Z,98224.66
2023-12-27T18:23:20.449Z,98212.84
2023-12-27T18:26:31.815Z,98213.84
2023-12-27T18:29:41.213Z,98198.28
2023-12-27T18:51:16.423Z,98047.28
2023-12-27T18:54:28.550Z,97793.84
2023-12-27T18:57:31.067Z,97864.25
2023-12-27T19:00:33.510Z,97987.72
2023-12-27T19:03:39.349Z,97762.31
2023-12-27T19:06:41.980Z,97923.97
2023-12-27T19:09:44.585Z,98032.06
2023-12-27T19:12:47.319Z,98110.94
2023-12-27T19:15:50.216Z,97959.41
2023-12-27T19:18:53.090Z,98169.22
2023-12-27T19:21:57.856Z,98171.97
2023-12-27T19:25:00.591Z,98080.97
2023-12-27T19:28:04.157Z,98021.88
2023-12-27T19:31:07.504Z,98172.47
2023-12-27T19:34:10.971Z,98171.34
2023-12-27T19:37:13.688Z,97924.72
2023-12-27T19:40:16.965Z,98070.34
2023-12-27T19:43:19.637Z,98120.22
2023-12-27T19:46:22.892Z,97878.34
2023-12-27T19:49:26.167Z,97759.44
2023-12-27T19:52:28.966Z,97946.88
2023-12-27T19:55:31.810Z,98075.91
2023-12-27T19:58:35.006Z,97901.25
2023-12-27T20:01:38.207Z,98019.47
2023-12-27T20:04:41.293Z,97972.38
2023-12-27T20:07:44.502Z,97810.38
2023-12-27T20:10:47.674Z,98163.44
2023-12-27T20:13:53.431Z,98170.44
2023-12-27T20:16:56.834Z,97792.94
2023-12-27T20:20:00.826Z,98081.94
2023-12-27T20:23:04.169Z,97870.19
2023-12-27T20:26:09.073Z,98158.00
2023-12-27T20:29:12.260Z,97931.16
2023-12-27T20:32:18.792Z,98152.28
2023-12-27T20:35:23.393Z,98027.97
2023-12-27T20:38:28.090Z,97959.94
2023-12-27T20:41:34.383Z,98123.84
2023-12-27T20:44:37.596Z,97777.41
2023-12-27T20:47:41.284Z,97980.88
2023-12-27T20:50:44.848Z,97970.88
2023-12-27T20:53:48.244Z,97971.88
2023-12-27T20:56:51.767Z,97720.41
2023-12-27T20:59:55.535Z,97842.59
2023-12-27T21:02:59.001Z,98054.63
2023-12-27T21:06:01.318Z,97945.88
2023-12-27T21:09:04.375Z,98123.44
2023-12-27T21:12:16.263Z,98129.03
2023-12-27T21:15:18.605Z,97725.81
2023-12-27T21:18:20.923Z,97723.84
2023-12-27T21:21:23.209Z,97840.13
2023-12-27T21:24:25.485Z,98117.38
2023-12-27T21:27:28.240Z,97880.34
2023-12-27T21:30:30.592Z,97836.06
2023-12-27T21:33:47.969Z,97693.66
2023-12-27T21:41:48.116Z,98110.88
2023-12-27T21:44:58.170Z,97851.25
2023-12-27T21:48:01.042Z,98097.78
2023-12-27T21:51:03.716Z,97818.09
2023-12-27T21:54:06.481Z,98033.03
2023-12-27T21:57:08.867Z,97919.72
2023-12-27T22:00:11.636Z,97953.88
2023-12-27T22:03:14.303Z,98121.69
2023-12-27T22:06:17.772Z,97984.78
2023-12-27T22:09:20.406Z,97962.88
2023-12-27T22:12:22.706Z,97763.00
2023-12-27T22:15:25.057Z,97990.53
2023-12-27T22:18:27.988Z,97635.34
2023-12-27T22:21:31.439Z,97977.75
2023-12-27T22:27:54.716Z,98128.59
2023-12-27T22:39:09.474Z,97654.84
2023-12-27T22:42:19.245Z,97863.00
2023-12-27T22:57:00.367Z,97691.13
2023-12-27T23:00:42.000Z,97971.38
2023-12-27T23:03:46.751Z,98092.88
2023-12-27T23:06:50.431Z,97661.47
2023-12-27T23:09:53.158Z,98094.38
2023-12-27T23:12:55.721Z,97632.09
2023-12-27T23:15:59.776Z,97696.81
2023-12-27T23:19:02.532Z,97731.13
2023-12-27T23:22:05.588Z,97610.69
2023-12-27T23:25:09.326Z,97676.25
2023-12-27T23:28:11.936Z,97854.13
2023-12-27T23:31:14.880Z,97630.75
2023-12-27T23:34:17.373Z,98073.94
2023-12-27T23:37:19.833Z,97919.06
2023-12-27T23:40:22.095Z,97948.00
2023-12-27T23:43:25.327Z,97721.16
2023-12-27T23:46:27.398Z,97616.84
2023-12-27T23:49:29.816Z,97647.16
2023-12-27T23:52:32.156Z,98021.59
2023-12-27T23:55:35.285Z,97881.56
2023-12-27T23:58:38.562Z,97673.44
